createdAt,value
2019-03-05T00:00:08.098Z,99.00
2019-03-05T00:02:35.863Z,99.10
2019-03-05T00:05:03.585Z,98.90
2019-03-05T00:07:30.927Z,98.80
2019-03-05T00:09:59.601Z,98.70
2019-03-05T00:12:27.783Z,98.80
2019-03-05T00:14:55.416Z,98.50
2019-03-05T00:17:22.834Z,98.70
2019-03-05T00:19:50.367Z,98.60
2019-03-05T00:22:17.773Z,98.70
2019-03-05T00:24:59.587Z,98.50
2019-03-05T00:27:28.849Z,98.60
2019-03-05T00:30:09.296Z,98.60
2019-03-05T00:32:37.015Z,98.40
2019-03-05T00:35:32.286Z,98.10
2019-03-05T00:38:17.501Z,98.30
2019-03-05T00:41:05.546Z,98.30
2019-03-05T00:44:04.522Z,98.00
2019-03-05T00:47:01.237Z,98.10
2019-03-05T00:49:54.724Z,98.10
2019-03-05T00:52:51.068Z,98.20
2019-03-05T00:56:01.990Z,98.20
2019-03-05T00:59:17.633Z,98.30
2019-03-05T01:02:17.962Z,98.00
2019-03-05T01:05:38.368Z,98.30
2019-03-05T01:08:05.736Z,98.20
2019-03-05T01:10:33.758Z,98.10
2019-03-05T01:13:01.094Z,98.00
2019-03-05T01:15:28.774Z,98.10
2019-03-05T01:17:56.848Z,98.00
2019-03-05T01:20:24.299Z,98.00
2019-03-05T01:22:51.861Z,97.90
2019-03-05T01:25:30.323Z,97.90
2019-03-05T01:27:58.378Z,98.00
2019-03-05T01:30:45.824Z,97.90
2019-03-05T01:33:14.200Z,97.90
2019-03-05T01:35:47.388Z,98.00
2019-03-05T01:38:14.797Z,98.00
2019-03-05T01:40:45.873Z,97.90
2019-03-05T01:43:13.365Z,97.90
2019-03-05T01:45:40.813Z,97.80
2019-03-05T01:48:08.218Z,98.00
2019-03-05T01:50:35.675Z,97.90
2019-03-05T01:53:03.079Z,97.90
2019-03-05T01:55:30.419Z,97.80
2019-03-05T01:57:59.614Z,98.00
2019-03-05T02:00:27.375Z,98.00
2019-03-05T02:02:55.059Z,98.10
2019-03-05T02:05:22.837Z,98.30
2019-03-05T02:07:50.818Z,98.50
2019-03-05T02:10:20.506Z,98.50
2019-03-05T02:12:48.298Z,98.60
2019-03-05T02:15:15.911Z,98.70
2019-03-05T02:17:44.000Z,98.80
2019-03-05T02:20:15.031Z,99.20
2019-03-05T02:22:58.547Z,98.70
2019-03-05T02:25:43.242Z,98.80
2019-03-05T02:28:53.280Z,98.80
2019-03-05T02:31:49.362Z,98.70
2019-03-05T02:34:44.660Z,98.50
2019-03-05T02:38:09.135Z,98.60
2019-03-05T02:41:08.809Z,98.40
2019-03-05T02:44:08.787Z,98.30
2019-03-05T02:47:24.295Z,98.10
2019-03-05T02:50:45.822Z,98.20
2019-03-05T02:53:31.586Z,98.20
2019-03-05T02:56:31.951Z,98.40
2019-03-05T02:58:58.508Z,98.50
2019-03-05T03:01:43.130Z,98.50
2019-03-05T03:04:13.434Z,98.30
2019-03-05T03:06:41.267Z,98.50
2019-03-05T03:10:05.500Z,98.50
2019-03-05T03:12:33.061Z,98.40
2019-03-05T03:15:00.506Z,98.20
2019-03-05T03:17:28.279Z,98.40
2019-03-05T03:19:55.604Z,98.60
2019-03-05T03:22:23.223Z,98.60
2019-03-05T03:24:51.139Z,98.40
2019-03-05T03:27:18.696Z,98.60
2019-03-05T03:29:46.480Z,98.60
2019-03-05T03:32:13.988Z,98.70
2019-03-05T03:34:41.441Z,98.60
2019-03-05T03:37:09.126Z,98.20
2019-03-05T03:39:36.494Z,98.50
2019-03-05T03:42:04.087Z,98.50
2019-03-05T03:44:31.508Z,98.60
2019-03-05T03:46:59.362Z,98.40
2019-03-05T03:49:26.730Z,98.40
2019-03-05T03:51:54.378Z,98.20
2019-03-05T03:54:21.802Z,98.20
2019-03-05T03:56:50.310Z,98.20
2019-03-05T03:59:17.757Z,98.40
2019-03-05T04:01:45.202Z,98.30
2019-03-05T04:04:12.860Z,98.20
2019-03-05T04:06:40.289Z,98.20
2019-03-05T04:09:10.373Z,98.10
2019-03-05T04:11:38.118Z,98.20
2019-03-05T04:14:05.715Z,98.30
2019-03-05T04:16:33.952Z,98.10
2019-03-05T04:19:03.208Z,98.20
2019-03-05T04:21:31.004Z,98.20
2019-03-05T04:23:58.726Z,98.30
2019-03-05T04:26:26.342Z,98.40
2019-03-05T04:28:54.099Z,98.30
2019-03-05T04:31:21.554Z,98.50
2019-03-05T04:33:48.858Z,98.50
2019-03-05T04:36:16.194Z,98.50
2019-03-05T04:38:43.702Z,98.50
2019-03-05T04:41:11.137Z,98.50
2019-03-05T04:43:38.563Z,98.40
2019-03-05T04:46:23.935Z,98.40
2019-03-05T04:49:10.946Z,98.30
2019-03-05T04:51:44.702Z,98.30
2019-03-05T04:54:12.087Z,98.30
2019-03-05T04:56:39.506Z,98.40
2019-03-05T04:59:07.438Z,98.30
2019-03-05T05:01:34.898Z,98.20
2019-03-05T05:04:02.352Z,98.30
2019-03-05T05:06:29.755Z,98.20
2019-03-05T05:08:57.195Z,98.40
2019-03-05T05:11:24.494Z,98.40
2019-03-05T05:13:52.127Z,98.30
2019-03-05T05:16:19.417Z,98.30
2019-03-05T05:18:46.830Z,98.10
2019-03-05T05:21:14.473Z,98.20
2019-03-05T05:23:42.209Z,98.10
2019-03-05T05:26:09.600Z,98.20
2019-03-05T05:28:37.033Z,98.10
2019-03-05T05:31:04.426Z,97.90
2019-03-05T05:33:31.732Z,97.70
2019-03-05T05:35:59.616Z,97.70
2019-03-05T05:38:27.229Z,97.50
2019-03-05T05:40:55.346Z,97.50
2019-03-05T05:43:25.542Z,97.40
2019-03-05T05:45:54.074Z,97.50
2019-03-05T05:48:21.447Z,97.40
2019-03-05T05:50:49.220Z,97.50
2019-03-05T05:53:16.782Z,97.00
2019-03-05T05:55:44.281Z,96.80
2019-03-05T05:58:11.632Z,96.90
2019-03-05T06:00:43.963Z,96.70
2019-03-05T06:03:11.359Z,96.50
2019-03-05T06:05:39.008Z,96.80
2019-03-05T06:08:06.770Z,96.60
2019-03-05T06:10:34.522Z,96.90
2019-03-05T06:13:01.922Z,96.90
2019-03-05T06:15:30.142Z,97.00
2019-03-05T06:17:57.482Z,97.10
2019-03-05T06:20:24.842Z,97.30
2019-03-05T06:22:52.530Z,97.20
2019-03-05T06:25:19.932Z,96.90
2019-03-05T06:27:47.637Z,96.80
2019-03-05T06:30:15.304Z,97.00
2019-03-05T06:32:42.660Z,97.10
2019-03-05T06:35:10.107Z,96.90
2019-03-05T06:37:37.524Z,96.80
2019-03-05T06:40:06.850Z,97.00
2019-03-05T06:42:34.169Z,97.20
2019-03-05T06:45:01.814Z,97.10
2019-03-05T06:47:29.278Z,97.30
2019-03-05T06:49:56.671Z,97.20
2019-03-05T06:52:24.330Z,97.20
2019-03-05T06:54:51.925Z,97.50
2019-03-05T06:57:19.567Z,97.60
2019-03-05T06:59:46.995Z,97.50
2019-03-05T07:02:14.449Z,97.60
2019-03-05T07:04:43.997Z,97.50
2019-03-05T07:07:11.381Z,97.40
2019-03-05T07:10:26.717Z,97.50
2019-03-05T07:13:12.973Z,97.30
2019-03-05T07:16:17.131Z,97.00
2019-03-05T07:19:17.728Z,97.00
2019-03-05T07:22:17.887Z,96.70
2019-03-05T07:24:46.861Z,96.40
2019-03-05T07:27:35.086Z,96.30
2019-03-05T07:30:25.700Z,96.10
2019-03-05T07:32:53.943Z,95.90
2019-03-05T07:35:23.116Z,96.20
2019-03-05T07:37:50.470Z,95.80
2019-03-05T07:40:18.443Z,96.00
2019-03-05T07:42:46.379Z,95.80
2019-03-05T07:45:14.309Z,95.80
2019-03-05T07:47:41.763Z,95.50
2019-03-05T07:50:09.266Z,95.70
2019-03-05T07:52:36.635Z,95.60
2019-03-05T07:55:13.584Z,96.00
2019-03-05T07:57:34.955Z,95.10
2019-03-05T08:00:05.365Z,94.70
2019-03-05T08:02:32.863Z,94.90
2019-03-05T08:05:00.408Z,94.80
2019-03-05T08:07:27.763Z,94.70
2019-03-05T08:09:56.854Z,94.50
2019-03-05T08:13:06.829Z,94.30
2019-03-05T08:16:10.538Z,93.60
2019-03-05T08:18:37.901Z,94.80
2019-03-05T08:21:06.034Z,94.30
2019-03-05T08:23:33.489Z,94.10
2019-03-05T08:26:01.233Z,94.50
2019-03-05T08:28:28.890Z,94.00
2019-03-05T08:30:56.695Z,93.90
2019-03-05T08:33:24.310Z,94.00
2019-03-05T08:35:51.988Z,94.50
2019-03-05T08:38:19.338Z,94.20
2019-03-05T08:40:46.882Z,94.40
2019-03-05T08:43:14.235Z,93.80
2019-03-05T08:45:42.011Z,94.90
2019-03-05T08:48:09.464Z,93.80
2019-03-05T08:50:37.331Z,94.50
2019-03-05T08:53:05.062Z,94.30
2019-03-05T08:55:32.800Z,93.80
2019-03-05T08:58:00.509Z,94.70
2019-03-05T09:00:28.070Z,94.70
2019-03-05T09:02:55.471Z,95.20
2019-03-05T09:05:23.200Z,95.00
2019-03-05T09:07:51.564Z,94.70
2019-03-05T09:10:20.250Z,95.10
2019-03-05T09:12:47.869Z,95.90
2019-03-05T09:15:16.758Z,95.40
2019-03-05T09:17:45.446Z,95.40
2019-03-05T09:20:14.187Z,95.80
2019-03-05T09:22:41.615Z,96.70
2019-03-05T09:25:10.242Z,97.30
2019-03-05T09:27:37.898Z,97.50
2019-03-05T09:30:07.095Z,98.40
2019-03-05T09:32:34.483Z,98.50
2019-03-05T09:35:01.991Z,98.70
2019-03-05T09:37:29.283Z,98.60
2019-03-05T09:39:56.923Z,98.90
2019-03-05T09:42:24.630Z,99.20
2019-03-05T09:44:52.314Z,99.50
2019-03-05T09:47:20.093Z,99.90
2019-03-05T09:49:47.551Z,99.90
2019-03-05T09:52:14.867Z,99.90
2019-03-05T09:54:42.307Z,99.90
2019-03-05T09:57:09.698Z,99.90
2019-03-05T09:59:37.350Z,99.90
2019-03-05T10:02:05.299Z,99.90
2019-03-05T10:04:32.784Z,99.90
2019-03-05T10:07:00.127Z,99.90
2019-03-05T10:09:27.539Z,99.90
2019-03-05T10:11:56.803Z,99.90
2019-03-05T10:14:24.525Z,99.90
2019-03-05T10:16:51.978Z,99.90
2019-03-05T10:19:20.029Z,99.90
2019-03-05T10:21:47.414Z,99.90
2019-03-05T10:24:14.943Z,99.90
2019-03-05T10:26:42.771Z,99.90
2019-03-05T10:29:10.471Z,99.90
2019-03-05T10:31:37.931Z,99.90
2019-03-05T10:34:05.361Z,99.90
2019-03-05T10:36:32.724Z,99.90
2019-03-05T10:39:00.125Z,99.90
2019-03-05T10:41:28.572Z,99.90
2019-03-05T10:43:56.033Z,99.90
2019-03-05T10:46:23.789Z,99.90
2019-03-05T10:48:51.858Z,99.90
2019-03-05T10:51:19.321Z,99.90
2019-03-05T10:53:46.656Z,99.90
2019-03-05T10:56:14.699Z,99.90
2019-03-05T10:58:42.014Z,99.90
2019-03-05T11:01:10.408Z,99.90
2019-03-05T11:03:38.243Z,99.90
2019-03-05T11:06:07.272Z,99.90
2019-03-05T11:08:34.905Z,99.90
2019-03-05T11:11:12.650Z,99.90
2019-03-05T11:13:31.825Z,99.90
2019-03-05T11:15:59.600Z,99.90
2019-03-05T11:18:29.679Z,99.90
2019-03-05T11:20:56.741Z,99.90
2019-03-05T11:23:24.576Z,99.90
2019-03-05T11:25:52.542Z,99.90
2019-03-05T11:28:20.449Z,99.90
2019-03-05T11:30:48.423Z,99.90
2019-03-05T11:33:15.877Z,99.90
2019-03-05T11:35:43.655Z,99.90
2019-03-05T11:38:11.497Z,99.90
2019-03-05T11:40:38.939Z,99.90
2019-03-05T11:43:11.114Z,99.90
2019-03-05T11:45:39.897Z,99.90
2019-03-05T11:48:07.433Z,99.90
2019-03-05T11:50:34.818Z,99.90
2019-03-05T11:53:02.233Z,99.90
2019-03-05T11:55:30.091Z,99.90
2019-03-05T11:57:57.436Z,99.90
2019-03-05T12:00:56.810Z,99.90
2019-03-05T12:03:24.553Z,99.90
2019-03-05T12:05:52.310Z,99.90
2019-03-05T12:08:19.924Z,99.90
2019-03-05T12:10:47.783Z,99.90
2019-03-05T12:13:15.198Z,99.90
2019-03-05T12:15:42.846Z,99.90
2019-03-05T12:18:10.518Z,99.90
2019-03-05T12:20:38.016Z,99.90
2019-03-05T12:23:06.643Z,99.90
2019-03-05T12:25:36.119Z,99.90
2019-03-05T12:28:10.400Z,99.90
2019-03-05T12:30:33.614Z,99.90
2019-03-05T12:33:01.365Z,99.90
2019-03-05T12:35:29.048Z,99.90
2019-03-05T12:37:56.505Z,99.90
2019-03-05T12:40:24.189Z,99.90
2019-03-05T12:42:51.598Z,99.90
2019-03-05T12:45:19.883Z,99.90
2019-03-05T12:47:47.199Z,99.90
2019-03-05T12:50:16.953Z,99.90
2019-03-05T12:52:45.418Z,99.90
2019-03-05T12:55:13.041Z,99.90
2019-03-05T12:57:40.626Z,99.90
2019-03-05T13:00:10.993Z,99.90
2019-03-05T13:02:38.395Z,99.90
2019-03-05T13:05:09.150Z,99.90
2019-03-05T13:07:37.130Z,99.90
2019-03-05T13:10:05.828Z,99.90
2019-03-05T13:12:36.018Z,99.90
2019-03-05T13:15:02.590Z,99.90
2019-03-05T13:17:30.009Z,99.90
2019-03-05T13:19:58.081Z,99.90
2019-03-05T13:22:28.830Z,99.90
2019-03-05T13:24:55.107Z,99.90
2019-03-05T13:27:23.765Z,99.90
2019-03-05T13:29:51.890Z,99.70
2019-03-05T13:32:20.700Z,99.90
2019-03-05T13:34:48.846Z,99.90
2019-03-05T13:37:16.179Z,99.80
2019-03-05T13:39:43.531Z,99.90
2019-03-05T13:42:11.491Z,99.60
2019-03-05T13:44:39.222Z,99.50
2019-03-05T13:47:07.862Z,99.60
2019-03-05T13:50:08.470Z,99.90
2019-03-05T13:53:22.382Z,99.30
2019-03-05T13:56:37.605Z,99.40
2019-03-05T13:59:43.938Z,99.90
2019-03-05T14:02:13.714Z,99.90
2019-03-05T14:05:28.683Z,99.60
2019-03-05T14:08:46.197Z,99.60
2019-03-05T14:11:14.021Z,98.90
2019-03-05T14:13:41.544Z,99.10
2019-03-05T14:16:10.486Z,99.00
2019-03-05T14:18:37.883Z,98.80
2019-03-05T14:21:05.396Z,98.90
2019-03-05T14:23:32.817Z,99.00
2019-03-05T14:26:00.170Z,98.80
2019-03-05T14:28:27.711Z,98.50
2019-03-05T14:30:55.153Z,98.50
2019-03-05T14:33:22.599Z,98.90
2019-03-05T14:35:50.113Z,98.80
2019-03-05T14:38:17.768Z,99.10
2019-03-05T14:40:45.179Z,98.50
2019-03-05T14:43:12.951Z,98.40
2019-03-05T14:45:40.375Z,98.50
2019-03-05T14:48:08.260Z,98.70
2019-03-05T14:50:36.299Z,98.50
2019-03-05T14:53:04.386Z,98.70
2019-03-05T14:55:32.196Z,98.10
2019-03-05T14:57:59.928Z,97.90
2019-03-05T15:00:27.548Z,97.90
2019-03-05T15:02:55.819Z,97.40
2019-03-05T15:05:23.951Z,97.20
2019-03-05T15:07:51.954Z,97.20
2019-03-05T15:10:19.638Z,97.50
2019-03-05T15:12:47.380Z,97.30
2019-03-05T15:15:18.250Z,98.00
2019-03-05T15:17:45.809Z,97.50
2019-03-05T15:20:13.290Z,97.70
2019-03-05T15:22:41.029Z,97.50
2019-03-05T15:25:09.582Z,97.50
2019-03-05T15:27:37.121Z,97.50
2019-03-05T15:30:06.181Z,97.70
2019-03-05T15:32:33.617Z,97.70
2019-03-05T15:35:01.520Z,97.30
2019-03-05T15:37:29.322Z,97.50
2019-03-05T15:39:57.038Z,97.60
2019-03-05T15:42:28.627Z,97.50
2019-03-05T15:44:55.335Z,96.80
2019-03-05T15:47:22.785Z,96.80
2019-03-05T15:49:50.543Z,95.30
2019-03-05T15:52:18.191Z,95.20
2019-03-05T15:54:45.756Z,93.50
2019-03-05T15:57:13.490Z,94.00
2019-03-05T15:59:44.652Z,94.30
2019-03-05T16:02:15.531Z,93.40
2019-03-05T16:04:43.893Z,93.30
2019-03-05T16:07:12.578Z,93.40
2019-03-05T16:09:41.995Z,93.50
2019-03-05T16:12:10.790Z,93.80
2019-03-05T16:14:38.466Z,94.00
2019-03-05T16:17:06.075Z,94.50
2019-03-05T16:19:33.926Z,95.00
2019-03-05T16:22:01.660Z,95.40
2019-03-05T16:24:29.575Z,95.80
2019-03-05T16:26:58.306Z,96.10
2019-03-05T16:29:26.482Z,96.10
2019-03-05T16:32:23.109Z,95.90
2019-03-05T16:35:27.354Z,96.20
2019-03-05T16:38:15.072Z,96.50
2019-03-05T16:41:01.739Z,96.60
2019-03-05T16:43:51.500Z,96.80
2019-03-05T16:46:32.599Z,96.90
2019-03-05T16:49:25.721Z,97.00
2019-03-05T16:52:11.431Z,97.10
2019-03-05T16:54:53.319Z,97.10
2019-03-05T16:57:52.487Z,97.30
2019-03-05T17:00:37.897Z,97.50
2019-03-05T17:03:27.762Z,97.40
2019-03-05T17:06:06.790Z,97.70
2019-03-05T17:08:52.107Z,97.80
2019-03-05T17:11:29.650Z,97.80
2019-03-05T17:13:57.584Z,98.00
2019-03-05T17:16:25.736Z,98.00
2019-03-05T17:18:53.506Z,98.10
2019-03-05T17:21:27.481Z,98.20
2019-03-05T17:23:50.266Z,98.20
2019-03-05T17:26:17.939Z,98.60
2019-03-05T17:28:46.328Z,98.40
2019-03-05T17:31:14.184Z,98.40
2019-03-05T17:33:42.257Z,98.40
2019-03-05T17:36:10.382Z,98.60
2019-03-05T17:38:37.802Z,98.60
2019-03-05T17:41:05.930Z,98.70
2019-03-05T17:43:33.890Z,98.80
2019-03-05T17:46:01.853Z,98.90
2019-03-05T17:48:29.235Z,99.00
2019-03-05T17:50:57.016Z,99.00
2019-03-05T17:53:24.819Z,99.30
2019-03-05T17:55:52.258Z,99.30
2019-03-05T17:58:20.061Z,99.40
2019-03-05T18:00:49.084Z,99.50
2019-03-05T18:03:16.873Z,99.60
2019-03-05T18:05:44.850Z,99.70
2019-03-05T18:08:13.911Z,99.90
2019-03-05T18:10:43.047Z,99.90
2019-03-05T18:13:10.867Z,99.90
2019-03-05T18:15:38.601Z,99.90
2019-03-05T18:18:06.221Z,99.90
2019-03-05T18:20:34.063Z,99.90
2019-03-05T18:23:01.480Z,99.90
2019-03-05T18:25:29.645Z,99.90
2019-03-05T18:27:57.508Z,99.90
2019-03-05T18:30:25.431Z,99.90
2019-03-05T18:32:52.917Z,99.90
2019-03-05T18:35:21.063Z,99.90
2019-03-05T18:37:49.244Z,99.90
2019-03-05T18:40:16.756Z,99.90
2019-03-05T18:42:44.542Z,99.90
2019-03-05T18:45:14.696Z,99.90
2019-03-05T18:47:42.539Z,99.90
2019-03-05T18:50:10.513Z,99.90
2019-03-05T18:52:38.019Z,99.90
2019-03-05T18:55:07.236Z,99.90
2019-03-05T18:57:35.248Z,99.90
2019-03-05T19:00:04.162Z,99.90
2019-03-05T19:02:31.958Z,99.90
2019-03-05T19:04:59.425Z,99.90
2019-03-05T19:07:27.189Z,99.90
2019-03-05T19:09:54.702Z,99.90
2019-03-05T19:12:22.902Z,99.90
2019-03-05T19:14:50.469Z,99.90
2019-03-05T19:17:18.242Z,99.90
2019-03-05T19:19:45.761Z,99.90
2019-03-05T19:22:13.260Z,99.90
2019-03-05T19:24:41.324Z,99.90
2019-03-05T19:27:08.791Z,99.90
2019-03-05T19:29:36.555Z,99.90
2019-03-05T19:32:04.106Z,99.90
2019-03-05T19:34:31.601Z,99.90
2019-03-05T19:36:59.705Z,99.90
2019-03-05T19:39:27.617Z,99.90
2019-03-05T19:41:56.308Z,99.90
2019-03-05T19:44:24.430Z,99.90
2019-03-05T19:46:52.179Z,99.90
2019-03-05T19:49:19.941Z,99.90
2019-03-05T19:51:47.870Z,99.90
2019-03-05T19:54:15.585Z,99.90
2019-03-05T19:56:43.050Z,99.90
2019-03-05T19:59:10.451Z,99.90
2019-03-05T20:01:44.200Z,99.90
2019-03-05T20:04:12.387Z,99.90
2019-03-05T20:06:40.143Z,99.90
2019-03-05T20:09:08.629Z,99.90
2019-03-05T20:11:36.096Z,99.90
2019-03-05T20:14:03.500Z,99.90
2019-03-05T20:16:31.206Z,99.90
2019-03-05T20:18:59.454Z,99.90
2019-03-05T20:21:27.239Z,99.90
2019-03-05T20:23:54.698Z,99.90
2019-03-05T20:26:22.764Z,99.90
2019-03-05T20:28:50.910Z,99.90
2019-03-05T20:31:18.490Z,99.90
2019-03-05T20:33:45.963Z,99.90
2019-03-05T20:36:13.349Z,99.90
2019-03-05T20:38:40.804Z,99.90
2019-03-05T20:41:08.706Z,99.90
2019-03-05T20:43:36.212Z,99.90
2019-03-05T20:46:12.250Z,99.90
2019-03-05T20:48:40.011Z,99.90
2019-03-05T20:51:07.548Z,99.90
2019-03-05T20:53:35.351Z,99.90
2019-03-05T20:56:03.419Z,99.90
2019-03-05T20:58:30.986Z,99.90
2019-03-05T21:00:59.405Z,99.90
2019-03-05T21:03:26.682Z,99.90
2019-03-05T21:05:55.128Z,99.90
2019-03-05T21:08:22.993Z,99.90
2019-03-05T21:10:51.317Z,99.90
2019-03-05T21:13:19.653Z,99.90
2019-03-05T21:15:47.382Z,99.90
2019-03-05T21:18:15.319Z,99.90
2019-03-05T21:20:42.799Z,99.90
2019-03-05T21:23:10.942Z,99.90
2019-03-05T21:25:38.700Z,99.90
2019-03-05T21:28:06.241Z,99.90
2019-03-05T21:30:33.676Z,99.90
2019-03-05T21:33:01.760Z,99.90
2019-03-05T21:35:29.214Z,99.90
2019-03-05T21:37:57.811Z,99.90
2019-03-05T21:40:25.381Z,99.90
2019-03-05T21:42:53.269Z,99.90
2019-03-05T21:45:24.427Z,99.90
2019-03-05T21:47:51.924Z,99.90
2019-03-05T21:50:19.447Z,99.90
2019-03-05T21:52:46.994Z,99.90
2019-03-05T21:55:14.764Z,99.90
2019-03-05T21:57:42.208Z,99.90
2019-03-05T22:00:13.683Z,99.90
2019-03-05T22:02:41.353Z,99.90
2019-03-05T22:05:08.969Z,99.90
2019-03-05T22:07:36.716Z,99.90
2019-03-05T22:10:05.197Z,99.90
2019-03-05T22:12:32.604Z,99.90
2019-03-05T22:15:00.068Z,99.90
2019-03-05T22:17:27.523Z,99.90
2019-03-05T22:19:55.347Z,99.90
2019-03-05T22:22:22.814Z,99.90
2019-03-05T22:24:50.514Z,99.90
2019-03-05T22:27:17.936Z,99.90
2019-03-05T22:29:45.574Z,99.90
2019-03-05T22:32:13.259Z,99.90
2019-03-05T22:34:40.675Z,99.90
2019-03-05T22:37:08.435Z,99.90
2019-03-05T22:39:35.859Z,99.90
2019-03-05T22:42:03.914Z,99.90
2019-03-05T22:44:31.292Z,99.90
2019-03-05T22:46:58.673Z,99.90
2019-03-05T22:49:26.148Z,99.90
2019-03-05T22:51:53.966Z,99.90
2019-03-05T22:54:21.534Z,99.90
2019-03-05T22:56:49.447Z,99.90
2019-03-05T22:59:16.880Z,99.90
2019-03-05T23:01:44.890Z,99.90
2019-03-05T23:04:15.215Z,99.90
2019-03-05T23:06:42.866Z,99.90
2019-03-05T23:09:21.529Z,99.90
2019-03-05T23:11:48.841Z,99.90
2019-03-05T23:14:16.207Z,99.90
2019-03-05T23:16:43.866Z,99.90
2019-03-05T23:19:11.543Z,99.90
2019-03-05T23:21:39.246Z,99.90
2019-03-05T23:24:06.766Z,99.90
2019-03-05T23:26:34.243Z,99.90
2019-03-05T23:29:01.682Z,99.90
2019-03-05T23:31:29.303Z,99.90
2019-03-05T23:33:57.117Z,99.90
2019-03-05T23:36:24.603Z,99.90
2019-03-05T23:38:52.370Z,99.90
2019-03-05T23:41:20.213Z,99.90
2019-03-05T23:43:47.675Z,99.90
2019-03-05T23:46:15.388Z,99.90
2019-03-05T23:48:43.193Z,99.90
2019-03-05T23:51:10.699Z,99.90
2019-03-05T23:53:38.149Z,99.90
2019-03-05T23:56:05.762Z,99.90
2019-03-05T23:58:33.201Z,99.90
